sensor_id;sensor_type;location;lat;lon;timestamp;pressure;altitude;pressure_sealevel;temperature;humidity
3748;BME280;1889;50.058;8.688;2022-10-16T00:01:52;99995.55;;;17.54;88.35
3748;BME280;1889;50.058;8.688;2022-10-16T00:04:21;99985.23;;;17.57;88.27
3748;BME280;1889;50.058;8.688;2022-10-16T00:06:51;99991.02;;;17.56;88.34
3748;BME280;1889;50.058;8.688;2022-10-16T00:09:20;99979.28;;;17.60;88.70
3748;BME280;1889;50.058;8.688;2022-10-16T00:11:49;99979.28;;;17.60;88.70
3748;BME280;1889;50.058;8.688;2022-10-16T00:14:19;99971.91;;;17.67;87.88
3748;BME280;1889;50.058;8.688;2022-10-16T00:16:48;99968.78;;;17.67;87.64
3748;BME280;1889;50.058;8.688;2022-10-16T00:19:17;99968.22;;;17.69;87.57
3748;BME280;1889;50.058;8.688;2022-10-16T00:21:47;99947.78;;;17.70;87.48
3748;BME280;1889;50.058;8.688;2022-10-16T00:24:16;99947.78;;;17.70;87.48
3748;BME280;1889;50.058;8.688;2022-10-16T00:26:45;99964.23;;;17.78;87.17
3748;BME280;1889;50.058;8.688;2022-10-16T00:29:22;99970.58;;;17.67;87.47
3748;BME280;1889;50.058;8.688;2022-10-16T00:31:47;99973.08;;;17.70;87.66
3748;BME280;1889;50.058;8.688;2022-10-16T00:34:16;99990.08;;;17.67;87.71
3748;BME280;1889;50.058;8.688;2022-10-16T00:36:45;99984.14;;;17.61;88.24
3748;BME280;1889;50.058;8.688;2022-10-16T00:39:15;99984.56;;;17.62;88.32
3748;BME280;1889;50.058;8.688;2022-10-16T00:41:44;99986.71;;;17.72;87.93
3748;BME280;1889;50.058;8.688;2022-10-16T00:50:07;99990.08;;;17.67;88.20
3748;BME280;1889;50.058;8.688;2022-10-16T00:52:30;99990.08;;;17.67;88.20
3748;BME280;1889;50.058;8.688;2022-10-16T00:55:02;99979.59;;;17.73;87.93
3748;BME280;1889;50.058;8.688;2022-10-16T00:57:32;99976.86;;;17.74;87.75
3748;BME280;1889;50.058;8.688;2022-10-16T01:00:04;99977.02;;;17.80;87.70
3748;BME280;1889;50.058;8.688;2022-10-16T01:02:33;99970.36;;;17.80;87.55
3748;BME280;1889;50.058;8.688;2022-10-16T01:05:04;99974.03;;;17.86;87.32
3748;BME280;1889;50.058;8.688;2022-10-16T01:07:58;99974.21;;;17.83;87.16
3748;BME280;1889;50.058;8.688;2022-10-16T01:13:11;99985.22;;;17.84;87.44
3748;BME280;1889;50.058;8.688;2022-10-16T01:16:00;99987.75;;;17.87;87.25
3748;BME280;1889;50.058;8.688;2022-10-16T01:21:06;100006.34;;;17.70;87.96
3748;BME280;1889;50.058;8.688;2022-10-16T01:24:10;100020.34;;;17.83;87.72
3748;BME280;1889;50.058;8.688;2022-10-16T01:32:23;100016.02;;;17.81;87.41
3748;BME280;1889;50.058;8.688;2022-10-16T01:35:11;100014.13;;;17.74;87.55
3748;BME280;1889;50.058;8.688;2022-10-16T01:37:46;100010.63;;;17.82;87.34
3748;BME280;1889;50.058;8.688;2022-10-16T01:40:17;100016.64;;;17.86;86.90
3748;BME280;1889;50.058;8.688;2022-10-16T01:42:54;99998.80;;;17.88;86.73
3748;BME280;1889;50.058;8.688;2022-10-16T01:45:23;100000.85;;;17.91;86.56
3748;BME280;1889;50.058;8.688;2022-10-16T01:47:53;99998.33;;;17.88;86.48
3748;BME280;1889;50.058;8.688;2022-10-16T01:50:22;99989.01;;;17.88;86.24
3748;BME280;1889;50.058;8.688;2022-10-16T01:52:55;99984.60;;;17.79;86.22
3748;BME280;1889;50.058;8.688;2022-10-16T01:55:32;99984.98;;;17.71;85.96
3748;BME280;1889;50.058;8.688;2022-10-16T01:57:59;99989.46;;;17.79;86.22
3748;BME280;1889;50.058;8.688;2022-10-16T02:00:31;99998.20;;;17.64;86.15
3748;BME280;1889;50.058;8.688;2022-10-16T02:03:02;100013.33;;;17.72;86.15
3748;BME280;1889;50.058;8.688;2022-10-16T02:05:40;100011.78;;;17.58;85.88
3748;BME280;1889;50.058;8.688;2022-10-16T02:08:09;100008.25;;;17.58;86.01
3748;BME280;1889;50.058;8.688;2022-10-16T02:10:38;100019.67;;;17.51;86.20
3748;BME280;1889;50.058;8.688;2022-10-16T02:13:13;100019.89;;;17.65;86.06
3748;BME280;1889;50.058;8.688;2022-10-16T02:15:42;100015.66;;;17.70;85.62
3748;BME280;1889;50.058;8.688;2022-10-16T02:18:12;100021.19;;;17.75;85.37
3748;BME280;1889;50.058;8.688;2022-10-16T02:23:19;100013.84;;;17.62;84.80
3748;BME280;1889;50.058;8.688;2022-10-16T02:25:49;100015.98;;;17.53;85.05
3748;BME280;1889;50.058;8.688;2022-10-16T02:28:26;100023.66;;;17.60;85.03
3748;BME280;1889;50.058;8.688;2022-10-16T02:31:00;100024.42;;;17.63;84.84
3748;BME280;1889;50.058;8.688;2022-10-16T02:33:30;100015.38;;;17.57;84.71
3748;BME280;1889;50.058;8.688;2022-10-16T02:36:01;100015.58;;;17.63;84.80
3748;BME280;1889;50.058;8.688;2022-10-16T02:38:30;100004.53;;;17.51;84.52
3748;BME280;1889;50.058;8.688;2022-10-16T02:41:00;100009.42;;;17.61;84.66
3748;BME280;1889;50.058;8.688;2022-10-16T02:43:29;100004.39;;;17.65;84.38
3748;BME280;1889;50.058;8.688;2022-10-16T02:45:59;100015.05;;;17.54;84.40
3748;BME280;1889;50.058;8.688;2022-10-16T02:48:28;100024.02;;;17.62;84.40
3748;BME280;1889;50.058;8.688;2022-10-16T02:50:57;100030.21;;;17.63;84.38
3748;BME280;1889;50.058;8.688;2022-10-16T02:53:26;100019.10;;;17.63;84.38
3748;BME280;1889;50.058;8.688;2022-10-16T02:55:57;100019.83;;;17.67;84.19
3748;BME280;1889;50.058;8.688;2022-10-16T02:58:26;100027.02;;;17.65;84.26
3748;BME280;1889;50.058;8.688;2022-10-16T03:00:55;100025.08;;;17.77;83.97
3748;BME280;1889;50.058;8.688;2022-10-16T03:03:25;100026.97;;;17.75;83.79
3748;BME280;1889;50.058;8.688;2022-10-16T03:05:54;100028.93;;;17.80;83.81
3748;BME280;1889;50.058;8.688;2022-10-16T03:08:23;100032.69;;;17.84;83.63
3748;BME280;1889;50.058;8.688;2022-10-16T03:10:53;100039.11;;;17.80;83.49
3748;BME280;1889;50.058;8.688;2022-10-16T03:13:22;100038.70;;;17.61;83.99
3748;BME280;1889;50.058;8.688;2022-10-16T03:15:51;100036.33;;;17.65;84.39
3748;BME280;1889;50.058;8.688;2022-10-16T03:18:20;100044.64;;;17.76;84.05
3748;BME280;1889;50.058;8.688;2022-10-16T03:20:49;100039.74;;;17.85;83.57
3748;BME280;1889;50.058;8.688;2022-10-16T03:23:18;100038.58;;;17.82;83.46
3748;BME280;1889;50.058;8.688;2022-10-16T03:25:47;100038.58;;;17.82;83.46
3748;BME280;1889;50.058;8.688;2022-10-16T03:28:16;100040.09;;;17.69;83.67
3748;BME280;1889;50.058;8.688;2022-10-16T03:30:45;100045.28;;;17.72;83.72
3748;BME280;1889;50.058;8.688;2022-10-16T03:33:14;100042.52;;;17.55;84.02
3748;BME280;1889;50.058;8.688;2022-10-16T03:35:50;100048.55;;;17.69;84.22
3748;BME280;1889;50.058;8.688;2022-10-16T03:38:15;100054.30;;;17.78;83.80
3748;BME280;1889;50.058;8.688;2022-10-16T03:40:45;100055.23;;;17.77;83.53
3748;BME280;1889;50.058;8.688;2022-10-16T03:43:14;100052.09;;;17.78;83.57
3748;BME280;1889;50.058;8.688;2022-10-16T03:45:43;100047.27;;;17.86;83.42
3748;BME280;1889;50.058;8.688;2022-10-16T03:48:12;100044.79;;;17.91;83.11
3748;BME280;1889;50.058;8.688;2022-10-16T03:50:41;100043.06;;;17.90;83.08
3748;BME280;1889;50.058;8.688;2022-10-16T03:53:10;100051.44;;;17.64;83.62
3748;BME280;1889;50.058;8.688;2022-10-16T03:55:42;100059.30;;;17.57;84.44
3748;BME280;1889;50.058;8.688;2022-10-16T03:58:11;100067.98;;;17.71;84.21
3748;BME280;1889;50.058;8.688;2022-10-16T04:00:42;100056.82;;;17.81;83.72
3748;BME280;1889;50.058;8.688;2022-10-16T04:03:11;100053.92;;;17.86;83.42
3748;BME280;1889;50.058;8.688;2022-10-16T04:05:40;100053.31;;;17.89;83.34
3748;BME280;1889;50.058;8.688;2022-10-16T04:08:10;100054.39;;;17.85;83.38
3748;BME280;1889;50.058;8.688;2022-10-16T04:10:39;100060.91;;;17.88;83.31
3748;BME280;1889;50.058;8.688;2022-10-16T04:13:08;100058.73;;;17.97;83.14
3748;BME280;1889;50.058;8.688;2022-10-16T04:15:37;100038.69;;;17.98;83.00
3748;BME280;1889;50.058;8.688;2022-10-16T04:18:06;100043.22;;;17.96;82.93
3748;BME280;1889;50.058;8.688;2022-10-16T04:20:36;100056.07;;;17.97;82.89
3748;BME280;1889;50.058;8.688;2022-10-16T04:23:05;100059.88;;;17.82;83.18
3748;BME280;1889;50.058;8.688;2022-10-16T04:25:34;100076.98;;;17.77;83.53
3748;BME280;1889;50.058;8.688;2022-10-16T04:28:04;100076.79;;;17.81;83.77
3748;BME280;1889;50.058;8.688;2022-10-16T04:30:33;100079.92;;;17.81;83.66
3748;BME280;1889;50.058;8.688;2022-10-16T04:33:02;100083.75;;;17.75;83.69
3748;BME280;1889;50.058;8.688;2022-10-16T04:35:31;100088.84;;;17.80;83.77
3748;BME280;1889;50.058;8.688;2022-10-16T04:38:00;100082.21;;;17.88;83.42
3748;BME280;1889;50.058;8.688;2022-10-16T04:40:30;100073.45;;;17.95;83.14
3748;BME280;1889;50.058;8.688;2022-10-16T04:43:04;100070.08;;;18.00;82.95
3748;BME280;1889;50.058;8.688;2022-10-16T04:45:33;100069.78;;;17.98;82.67
3748;BME280;1889;50.058;8.688;2022-10-16T04:48:02;100067.63;;;17.87;82.82
3748;BME280;1889;50.058;8.688;2022-10-16T04:50:32;100076.26;;;17.83;82.80
3748;BME280;1889;50.058;8.688;2022-10-16T04:53:01;100080.95;;;17.87;82.82
3748;BME280;1889;50.058;8.688;2022-10-16T04:55:30;100066.16;;;17.90;82.68
3748;BME280;1889;50.058;8.688;2022-10-16T04:57:59;100067.52;;;17.99;82.57
3748;BME280;1889;50.058;8.688;2022-10-16T05:00:28;100066.34;;;18.04;82.35
3748;BME280;1889;50.058;8.688;2022-10-16T05:02:57;100066.74;;;18.05;82.25
3748;BME280;1889;50.058;8.688;2022-10-16T05:05:28;100073.87;;;18.05;82.17
3748;BME280;1889;50.058;8.688;2022-10-16T05:07:57;100086.39;;;18.03;82.08
3748;BME280;1889;50.058;8.688;2022-10-16T05:10:27;100080.13;;;18.04;82.16
3748;BME280;1889;50.058;8.688;2022-10-16T05:12:56;100088.89;;;17.97;82.13
3748;BME280;1889;50.058;8.688;2022-10-16T05:15:25;100074.73;;;18.05;82.22
3748;BME280;1889;50.058;8.688;2022-10-16T05:17:54;100081.22;;;18.08;82.07
3748;BME280;1889;50.058;8.688;2022-10-16T05:20:23;100083.88;;;17.91;82.11
3748;BME280;1889;50.058;8.688;2022-10-16T05:22:52;100088.25;;;18.01;82.32
3748;BME280;1889;50.058;8.688;2022-10-16T05:25:22;100088.84;;;18.07;82.07
3748;BME280;1889;50.058;8.688;2022-10-16T05:27:51;100087.67;;;18.13;81.96
3748;BME280;1889;50.058;8.688;2022-10-16T05:30:20;100086.95;;;18.09;81.81
3748;BME280;1889;50.058;8.688;2022-10-16T05:32:50;100089.78;;;18.06;81.84
3748;BME280;1889;50.058;8.688;2022-10-16T05:35:20;100093.95;;;17.93;82.38
3748;BME280;1889;50.058;8.688;2022-10-16T05:37:49;100094.03;;;17.83;83.05
3748;BME280;1889;50.058;8.688;2022-10-16T05:40:18;100094.06;;;17.91;82.81
3748;BME280;1889;50.058;8.688;2022-10-16T05:42:48;100070.72;;;17.97;82.59
3748;BME280;1889;50.058;8.688;2022-10-16T05:45:17;100069.25;;;18.00;82.36
3748;BME280;1889;50.058;8.688;2022-10-16T05:47:46;100074.64;;;17.98;82.25
3748;BME280;1889;50.058;8.688;2022-10-16T05:50:15;100071.74;;;18.03;82.17
3748;BME280;1889;50.058;8.688;2022-10-16T05:52:44;100079.73;;;18.03;82.13
3748;BME280;1889;50.058;8.688;2022-10-16T05:55:14;100089.78;;;18.06;82.12
3748;BME280;1889;50.058;8.688;2022-10-16T05:57:43;100099.08;;;17.98;82.26
3748;BME280;1889;50.058;8.688;2022-10-16T06:00:13;100098.68;;;17.97;82.45
3748;BME280;1889;50.058;8.688;2022-10-16T06:02:42;100114.13;;;17.99;82.50
3748;BME280;1889;50.058;8.688;2022-10-16T06:05:12;100128.20;;;18.01;82.34
3748;BME280;1889;50.058;8.688;2022-10-16T06:07:41;100124.91;;;17.96;82.95
3748;BME280;1889;50.058;8.688;2022-10-16T06:10:10;100126.78;;;17.93;83.14
3748;BME280;1889;50.058;8.688;2022-10-16T06:12:40;100130.11;;;17.99;82.98
3748;BME280;1889;50.058;8.688;2022-10-16T06:15:09;100137.93;;;18.02;82.64
3748;BME280;1889;50.058;8.688;2022-10-16T06:17:38;100137.93;;;18.02;82.64
3748;BME280;1889;50.058;8.688;2022-10-16T06:20:08;100141.59;;;17.90;83.55
3748;BME280;1889;50.058;8.688;2022-10-16T06:22:37;100141.59;;;17.90;83.55
3748;BME280;1889;50.058;8.688;2022-10-16T06:25:07;100148.38;;;18.06;83.17
3748;BME280;1889;50.058;8.688;2022-10-16T06:27:38;100148.55;;;18.12;82.62
3748;BME280;1889;50.058;8.688;2022-10-16T06:30:08;100152.52;;;18.03;82.94
3748;BME280;1889;50.058;8.688;2022-10-16T06:32:39;100150.18;;;18.06;83.15
3748;BME280;1889;50.058;8.688;2022-10-16T06:35:08;100150.61;;;18.15;82.87
3748;BME280;1889;50.058;8.688;2022-10-16T06:37:38;100147.23;;;18.20;82.74
3748;BME280;1889;50.058;8.688;2022-10-16T06:40:07;100140.11;;;18.21;82.61
3748;BME280;1889;50.058;8.688;2022-10-16T06:42:37;100139.97;;;18.24;82.52
3748;BME280;1889;50.058;8.688;2022-10-16T06:45:06;100136.67;;;18.27;82.51
3748;BME280;1889;50.058;8.688;2022-10-16T06:47:39;100139.34;;;18.27;82.50
3748;BME280;1889;50.058;8.688;2022-10-16T06:50:08;100149.39;;;18.31;82.63
3748;BME280;1889;50.058;8.688;2022-10-16T06:52:37;100143.95;;;18.33;82.60
3748;BME280;1889;50.058;8.688;2022-10-16T06:55:07;100140.69;;;18.36;82.50
3748;BME280;1889;50.058;8.688;2022-10-16T06:57:36;100146.81;;;18.38;82.24
3748;BME280;1889;50.058;8.688;2022-10-16T07:00:06;100148.94;;;18.40;82.31
3748;BME280;1889;50.058;8.688;2022-10-16T07:02:36;100157.00;;;18.39;82.64
3748;BME280;1889;50.058;8.688;2022-10-16T07:05:05;100160.83;;;18.42;82.49
3748;BME280;1889;50.058;8.688;2022-10-16T07:07:35;100160.30;;;18.44;82.62
3748;BME280;1889;50.058;8.688;2022-10-16T07:10:05;100170.89;;;18.45;82.36
3748;BME280;1889;50.058;8.688;2022-10-16T07:12:34;100174.88;;;18.45;82.54
3748;BME280;1889;50.058;8.688;2022-10-16T07:15:04;100183.59;;;18.40;82.56
3748;BME280;1889;50.058;8.688;2022-10-16T07:17:33;100186.25;;;18.40;83.07
3748;BME280;1889;50.058;8.688;2022-10-16T07:20:03;100176.28;;;18.44;82.94
3748;BME280;1889;50.058;8.688;2022-10-16T07:22:32;100185.64;;;18.52;82.87
3748;BME280;1889;50.058;8.688;2022-10-16T07:25:01;100188.09;;;18.57;82.67
3748;BME280;1889;50.058;8.688;2022-10-16T07:27:31;100188.09;;;18.57;82.67
3748;BME280;1889;50.058;8.688;2022-10-16T07:30:00;100202.48;;;18.63;82.20
3748;BME280;1889;50.058;8.688;2022-10-16T07:32:30;100212.91;;;18.67;82.39
3748;BME280;1889;50.058;8.688;2022-10-16T07:35:00;100212.91;;;18.67;82.39
3748;BME280;1889;50.058;8.688;2022-10-16T07:37:29;100205.70;;;18.51;82.45
3748;BME280;1889;50.058;8.688;2022-10-16T07:39:58;100213.02;;;18.56;82.71
3748;BME280;1889;50.058;8.688;2022-10-16T07:42:28;100223.02;;;18.51;82.84
3748;BME280;1889;50.058;8.688;2022-10-16T07:44:57;100231.72;;;18.46;83.29
3748;BME280;1889;50.058;8.688;2022-10-16T07:47:26;100228.69;;;18.53;83.07
3748;BME280;1889;50.058;8.688;2022-10-16T07:49:56;100226.35;;;18.56;83.01
3748;BME280;1889;50.058;8.688;2022-10-16T07:52:25;100239.42;;;18.33;83.91
3748;BME280;1889;50.058;8.688;2022-10-16T07:54:54;100239.42;;;18.33;83.91
3748;BME280;1889;50.058;8.688;2022-10-16T07:57:24;100233.59;;;18.44;84.15
3748;BME280;1889;50.058;8.688;2022-10-16T07:59:53;100234.72;;;18.48;83.82
3748;BME280;1889;50.058;8.688;2022-10-16T08:02:22;100230.68;;;18.58;83.28
3748;BME280;1889;50.058;8.688;2022-10-16T08:04:51;100238.48;;;18.53;83.46
3748;BME280;1889;50.058;8.688;2022-10-16T08:07:21;100244.42;;;18.49;84.03
3748;BME280;1889;50.058;8.688;2022-10-16T08:09:50;100250.28;;;18.57;82.93
3748;BME280;1889;50.058;8.688;2022-10-16T08:12:20;100261.13;;;18.63;83.31
3748;BME280;1889;50.058;8.688;2022-10-16T08:14:49;100266.27;;;18.57;83.37
3748;BME280;1889;50.058;8.688;2022-10-16T08:17:19;100275.14;;;18.58;83.75
3748;BME280;1889;50.058;8.688;2022-10-16T08:19:48;100285.13;;;18.34;84.44
3748;BME280;1889;50.058;8.688;2022-10-16T08:22:18;100280.73;;;18.33;84.94
3748;BME280;1889;50.058;8.688;2022-10-16T08:24:47;100283.27;;;18.36;85.42
3748;BME280;1889;50.058;8.688;2022-10-16T08:27:17;100283.27;;;18.36;85.42
3748;BME280;1889;50.058;8.688;2022-10-16T08:29:48;100290.37;;;18.46;84.76
3748;BME280;1889;50.058;8.688;2022-10-16T08:32:17;100296.59;;;18.55;84.38
3748;BME280;1889;50.058;8.688;2022-10-16T08:34:46;100296.59;;;18.55;84.38
3748;BME280;1889;50.058;8.688;2022-10-16T08:37:16;100300.55;;;18.27;85.54
3748;BME280;1889;50.058;8.688;2022-10-16T08:39:45;100300.55;;;18.27;85.54
3748;BME280;1889;50.058;8.688;2022-10-16T08:42:19;100306.59;;;18.50;85.06
3748;BME280;1889;50.058;8.688;2022-10-16T08:44:59;100306.59;;;18.50;85.06
3748;BME280;1889;50.058;8.688;2022-10-16T08:47:30;100323.09;;;18.68;83.98
3748;BME280;1889;50.058;8.688;2022-10-16T08:50:02;100323.09;;;18.68;83.98
3748;BME280;1889;50.058;8.688;2022-10-16T08:52:34;100325.76;;;18.68;83.81
3748;BME280;1889;50.058;8.688;2022-10-16T08:55:04;100325.86;;;18.75;83.52
3748;BME280;1889;50.058;8.688;2022-10-16T08:57:35;100325.86;;;18.75;83.52
3748;BME280;1889;50.058;8.688;2022-10-16T09:00:12;100333.66;;;18.80;83.21
3748;BME280;1889;50.058;8.688;2022-10-16T09:05:44;100341.45;;;18.74;83.43
3748;BME280;1889;50.058;8.688;2022-10-16T09:08:20;100337.25;;;18.79;82.82
3748;BME280;1889;50.058;8.688;2022-10-16T09:10:56;100338.42;;;18.82;83.12
3748;BME280;1889;50.058;8.688;2022-10-16T09:13:40;100344.89;;;18.86;83.17
3748;BME280;1889;50.058;8.688;2022-10-16T09:16:32;100348.22;;;18.81;82.94
3748;BME280;1889;50.058;8.688;2022-10-16T09:19:00;100351.72;;;18.73;83.24
3748;BME280;1889;50.058;8.688;2022-10-16T09:21:30;100351.72;;;18.73;83.24
3748;BME280;1889;50.058;8.688;2022-10-16T09:24:13;100353.16;;;18.72;83.48
3748;BME280;1889;50.058;8.688;2022-10-16T09:26:43;100359.86;;;18.80;83.37
3748;BME280;1889;50.058;8.688;2022-10-16T09:29:13;100365.80;;;18.77;83.69
3748;BME280;1889;50.058;8.688;2022-10-16T09:31:43;100365.80;;;18.77;83.69
3748;BME280;1889;50.058;8.688;2022-10-16T09:34:30;100384.16;;;18.83;82.96
3748;BME280;1889;50.058;8.688;2022-10-16T09:37:08;100384.16;;;18.83;82.96
3748;BME280;1889;50.058;8.688;2022-10-16T09:39:47;100376.83;;;18.69;83.58
3748;BME280;1889;50.058;8.688;2022-10-16T09:42:18;100385.06;;;18.73;84.21
3748;BME280;1889;50.058;8.688;2022-10-16T09:44:50;100398.98;;;18.61;85.05
3748;BME280;1889;50.058;8.688;2022-10-16T09:47:23;100402.38;;;18.44;86.19
3748;BME280;1889;50.058;8.688;2022-10-16T09:49:55;100402.38;;;18.44;86.19
3748;BME280;1889;50.058;8.688;2022-10-16T09:52:26;100402.09;;;18.50;86.13
3748;BME280;1889;50.058;8.688;2022-10-16T09:54:58;100398.91;;;18.52;86.29
3748;BME280;1889;50.058;8.688;2022-10-16T09:57:28;100398.90;;;18.81;85.27
3748;BME280;1889;50.058;8.688;2022-10-16T10:00:08;100402.30;;;18.56;86.05
3748;BME280;1889;50.058;8.688;2022-10-16T10:02:37;100402.30;;;18.56;86.05
3748;BME280;1889;50.058;8.688;2022-10-16T10:05:02;100402.97;;;18.51;87.40
3748;BME280;1889;50.058;8.688;2022-10-16T10:10:29;100407.91;;;18.60;87.22
3748;BME280;1889;50.058;8.688;2022-10-16T10:12:59;100412.59;;;18.74;86.69
3748;BME280;1889;50.058;8.688;2022-10-16T10:15:33;100407.91;;;18.89;86.03
3748;BME280;1889;50.058;8.688;2022-10-16T10:18:01;100409.87;;;18.94;85.81
3748;BME280;1889;50.058;8.688;2022-10-16T10:20:33;100403.94;;;19.06;85.33
3748;BME280;1889;50.058;8.688;2022-10-16T10:23:23;100406.16;;;19.15;85.19
3748;BME280;1889;50.058;8.688;2022-10-16T10:26:15;100406.66;;;19.23;84.71
3748;BME280;1889;50.058;8.688;2022-10-16T10:28:55;100413.33;;;19.23;84.30
3748;BME280;1889;50.058;8.688;2022-10-16T10:31:39;100407.45;;;19.25;84.04
3748;BME280;1889;50.058;8.688;2022-10-16T10:34:38;100411.41;;;19.08;83.95
3748;BME280;1889;50.058;8.688;2022-10-16T10:40:02;100409.24;;;18.60;86.10
3748;BME280;1889;50.058;8.688;2022-10-16T10:42:29;100410.52;;;18.61;87.17
3748;BME280;1889;50.058;8.688;2022-10-16T10:45:03;100417.22;;;18.70;87.02
3748;BME280;1889;50.058;8.688;2022-10-16T10:48:12;100413.29;;;18.68;87.40
3748;BME280;1889;50.058;8.688;2022-10-16T10:50:55;100405.07;;;18.92;86.56
3748;BME280;1889;50.058;8.688;2022-10-16T10:53:46;100405.07;;;18.92;86.56
3748;BME280;1889;50.058;8.688;2022-10-16T10:56:25;100400.56;;;19.02;86.33
3748;BME280;1889;50.058;8.688;2022-10-16T11:01:48;100395.20;;;19.30;85.66
3748;BME280;1889;50.058;8.688;2022-10-16T11:07:04;100391.53;;;19.32;86.00
3748;BME280;1889;50.058;8.688;2022-10-16T11:09:41;100394.27;;;19.50;85.64
3748;BME280;1889;50.058;8.688;2022-10-16T11:12:25;100390.28;;;19.39;85.24
3748;BME280;1889;50.058;8.688;2022-10-16T11:20:42;100390.42;;;19.81;84.98
3748;BME280;1889;50.058;8.688;2022-10-16T11:23:30;100391.67;;;19.57;84.14
3748;BME280;1889;50.058;8.688;2022-10-16T11:26:04;100392.87;;;19.68;84.43
3748;BME280;1889;50.058;8.688;2022-10-16T11:28:54;100399.08;;;19.69;84.49
3748;BME280;1889;50.058;8.688;2022-10-16T11:31:28;100397.97;;;19.90;84.03
3748;BME280;1889;50.058;8.688;2022-10-16T11:37:30;100398.42;;;20.15;82.56
3748;BME280;1889;50.058;8.688;2022-10-16T11:39:38;100392.47;;;20.10;82.01
3748;BME280;1889;50.058;8.688;2022-10-16T11:42:26;100390.62;;;20.19;82.37
3748;BME280;1889;50.058;8.688;2022-10-16T11:45:33;100393.01;;;20.34;82.59
3748;BME280;1889;50.058;8.688;2022-10-16T11:47:48;100393.45;;;20.42;81.93
3748;BME280;1889;50.058;8.688;2022-10-16T11:50:53;100396.66;;;20.49;81.75
3748;BME280;1889;50.058;8.688;2022-10-16T11:53:20;100394.06;;;20.47;81.11
3748;BME280;1889;50.058;8.688;2022-10-16T11:55:47;100393.67;;;20.46;80.96
3748;BME280;1889;50.058;8.688;2022-10-16T11:58:31;100395.72;;;20.33;80.91
3748;BME280;1889;50.058;8.688;2022-10-16T12:01:28;100396.44;;;20.36;80.85
3748;BME280;1889;50.058;8.688;2022-10-16T12:06:51;100376.19;;;20.06;81.31
3748;BME280;1889;50.058;8.688;2022-10-16T12:09:34;100376.19;;;20.06;81.31
3748;BME280;1889;50.058;8.688;2022-10-16T12:12:03;100384.83;;;20.03;81.52
3748;BME280;1889;50.058;8.688;2022-10-16T12:14:36;100384.60;;;20.07;81.72
3748;BME280;1889;50.058;8.688;2022-10-16T12:20:12;100381.00;;;19.74;81.90
3748;BME280;1889;50.058;8.688;2022-10-16T12:22:32;100378.19;;;19.86;82.15
3748;BME280;1889;50.058;8.688;2022-10-16T12:25:01;100370.31;;;19.83;80.64
3748;BME280;1889;50.058;8.688;2022-10-16T12:27:37;100368.44;;;19.93;80.96
3748;BME280;1889;50.058;8.688;2022-10-16T12:30:05;100368.44;;;19.93;80.96
3748;BME280;1889;50.058;8.688;2022-10-16T12:32:37;100372.98;;;20.00;80.92
3748;BME280;1889;50.058;8.688;2022-10-16T12:35:28;100374.23;;;20.10;81.06
3748;BME280;1889;50.058;8.688;2022-10-16T12:37:52;100371.86;;;20.04;80.45
3748;BME280;1889;50.058;8.688;2022-10-16T12:40:32;100375.56;;;20.10;79.50
3748;BME280;1889;50.058;8.688;2022-10-16T12:42:57;100384.45;;;20.10;78.91
3748;BME280;1889;50.058;8.688;2022-10-16T12:45:31;100383.47;;;20.20;79.17
3748;BME280;1889;50.058;8.688;2022-10-16T12:48:04;100385.58;;;20.31;79.12
3748;BME280;1889;50.058;8.688;2022-10-16T12:50:37;100388.92;;;20.18;78.13
3748;BME280;1889;50.058;8.688;2022-10-16T12:53:19;100399.28;;;20.25;78.43
3748;BME280;1889;50.058;8.688;2022-10-16T12:56:15;100388.52;;;20.26;77.58
3748;BME280;1889;50.058;8.688;2022-10-16T13:01:09;100395.48;;;20.46;76.96
3748;BME280;1889;50.058;8.688;2022-10-16T13:04:00;100396.30;;;20.64;77.05
3748;BME280;1889;50.058;8.688;2022-10-16T13:06:49;100404.08;;;20.60;75.62
3748;BME280;1889;50.058;8.688;2022-10-16T13:09:25;100395.98;;;20.61;74.84
3748;BME280;1889;50.058;8.688;2022-10-16T13:12:25;100377.30;;;20.68;75.27
3748;BME280;1889;50.058;8.688;2022-10-16T13:15:16;100376.67;;;20.72;75.37
3748;BME280;1889;50.058;8.688;2022-10-16T13:18:06;100380.56;;;20.66;75.29
3748;BME280;1889;50.058;8.688;2022-10-16T13:24:19;100401.11;;;20.81;75.10
3748;BME280;1889;50.058;8.688;2022-10-16T13:26:28;100396.55;;;20.83;75.08
3748;BME280;1889;50.058;8.688;2022-10-16T13:29:00;100409.58;;;20.89;74.98
3748;BME280;1889;50.058;8.688;2022-10-16T13:31:30;100391.12;;;20.92;74.80
3748;BME280;1889;50.058;8.688;2022-10-16T13:34:00;100391.91;;;20.78;74.48
3748;BME280;1889;50.058;8.688;2022-10-16T13:36:35;100394.53;;;20.71;74.51
3748;BME280;1889;50.058;8.688;2022-10-16T13:41:39;100393.88;;;20.83;74.42
3748;BME280;1889;50.058;8.688;2022-10-16T13:44:14;100389.59;;;20.88;74.56
3748;BME280;1889;50.058;8.688;2022-10-16T13:46:44;100391.05;;;20.93;74.63
3748;BME280;1889;50.058;8.688;2022-10-16T13:49:15;100397.50;;;20.98;74.64
3748;BME280;1889;50.058;8.688;2022-10-16T13:51:58;100390.49;;;20.95;74.62
3748;BME280;1889;50.058;8.688;2022-10-16T13:54:28;100389.16;;;20.95;74.71
3748;BME280;1889;50.058;8.688;2022-10-16T13:57:04;100388.12;;;20.98;74.69
3748;BME280;1889;50.058;8.688;2022-10-16T13:59:37;100399.23;;;20.99;74.59
3748;BME280;1889;50.058;8.688;2022-10-16T14:02:42;100398.91;;;20.97;74.41
3748;BME280;1889;50.058;8.688;2022-10-16T14:04:44;100397.78;;;21.01;74.38
3748;BME280;1889;50.058;8.688;2022-10-16T14:07:18;100394.16;;;21.02;74.37
3748;BME280;1889;50.058;8.688;2022-10-16T14:09:48;100386.40;;;20.97;74.21
3748;BME280;1889;50.058;8.688;2022-10-16T14:12:18;100389.86;;;20.99;74.31
3748;BME280;1889;50.058;8.688;2022-10-16T14:14:49;100382.19;;;21.00;74.28
3748;BME280;1889;50.058;8.688;2022-10-16T14:17:31;100381.36;;;21.00;74.21
3748;BME280;1889;50.058;8.688;2022-10-16T14:20:02;100381.52;;;20.97;74.20
3748;BME280;1889;50.058;8.688;2022-10-16T14:22:37;100373.45;;;20.89;74.21
3748;BME280;1889;50.058;8.688;2022-10-16T14:30:57;100373.80;;;20.83;74.50
3748;BME280;1889;50.058;8.688;2022-10-16T14:33:32;100399.80;;;20.48;77.24
3748;BME280;1889;50.058;8.688;2022-10-16T14:38:41;100390.11;;;20.54;77.32
3748;BME280;1889;50.058;8.688;2022-10-16T14:41:11;100397.63;;;20.64;76.97
3748;BME280;1889;50.058;8.688;2022-10-16T14:43:41;100397.00;;;20.67;76.87
3748;BME280;1889;50.058;8.688;2022-10-16T14:46:19;100397.84;;;20.68;76.71